Ana Sayfa
METAR-TAF:

METAR-TAF

Havaalanları :

Belgrad Nikola Tesla Havalimanı

Belgrad, Sırbistan

Enlem: 44-49N, Boylam: 020-17E, yükseklik: 96 m

Güncel hava durumu gözlemi

Rapor saat 17:00 UTC de 20 dakika önce yapıldı.
Rüzgar batı/güneybatıdan 6 kt
Sıcaklık 15°C
Nem 44%
Basınç 1023 hPa
Görüş mesafesi 10 km veya daha fazla
1500 m altında bulut yok ve kümülonimbus yok

METAR: LYBE 191700Z 25006KT CAVOK 15/03 Q1023 NOSIG

Saat: 19:20 (17:20 UTC)

Tahmin

Rapor saat 11:00 UTC de 6 saat ve 20 dakika önce yapıldı.
Ayın 19'si saat 12 UTC'den ayın 20'si saat 12 UTC'ye kadar geçerli Tahmin
Rüzgar kuzey/kuzeybatıdan 6 kt
Görüş mesafesi 10 km veya daha fazla
1500 m altında bulut yok ve kümülonimbus yok

TAF: LYBE 191100Z 1912/2012 34006KT CAVOK TX18/1913Z TN06/2004Z

4.000'den fazla havaalanı için hava durumu gözlemleri ve tahminleri (METAR ve TAF raporları).

Kullanılabilir istasyonlar harita üzerinde sarı ve kırmızı noktalarla gösterilir.

İstasyonun adını görmek için fareyi noktanın üzerinde gezdirin.

Sonrasında hava gözlem ve tahminlerini görmek için tıklayın.

Haritayı değiştirmek için: yaklaştırmak için siyah artı işaretli yeşil düğmeye ve uzaklaştırmak için de eksi işaretli düğmeye hızla tıklayın; bitişik haritalar için yeşil okları kullanın.


METAR-TAF: